createdAt,value
2019-05-12T00:01:14.174Z,10.70
2019-05-12T00:06:17.671Z,7.75
2019-05-12T00:11:21.113Z,9.35
2019-05-12T00:16:22.499Z,7.28
2019-05-12T00:21:23.805Z,7.28
2019-05-12T00:26:28.348Z,8.70
2019-05-12T00:31:30.658Z,8.80
2019-05-12T00:36:32.268Z,7.25
2019-05-12T00:41:33.828Z,7.47
2019-05-12T00:46:39.165Z,7.67
2019-05-12T00:51:40.895Z,6.37
2019-05-12T00:56:42.234Z,7.15
2019-05-12T01:01:43.554Z,7.10
2019-05-12T01:06:44.816Z,8.15
2019-05-12T01:11:48.392Z,7.20
2019-05-12T01:16:51.590Z,6.15
2019-05-12T01:21:52.936Z,7.42
2019-05-12T01:26:54.264Z,8.38
2019-05-12T01:32:00.852Z,11.70
2019-05-12T01:37:20.879Z,11.35
2019-05-12T01:42:23.886Z,12.13
2019-05-12T01:47:29.075Z,7.47
2019-05-12T01:52:30.592Z,8.95
2019-05-12T01:57:33.215Z,11.20
2019-05-12T02:02:34.526Z,12.28
2019-05-12T02:07:41.195Z,10.23
2019-05-12T02:12:42.514Z,11.30
2019-05-12T02:17:44.300Z,7.22
2019-05-12T02:22:47.778Z,10.58
2019-05-12T02:27:49.338Z,8.10
2019-05-12T02:32:57.427Z,9.80
2019-05-12T02:37:57.327Z,9.83
2019-05-12T02:42:59.719Z,8.78
2019-05-12T02:48:00.991Z,11.50
2019-05-12T02:53:05.376Z,9.80
2019-05-12T02:58:15.256Z,9.95
2019-05-12T03:03:25.075Z,17.27
2019-05-12T03:08:47.596Z,9.18
2019-05-12T03:13:49.435Z,11.40
2019-05-12T03:18:50.768Z,11.33
2019-05-12T03:23:54.877Z,12.40
2019-05-12T03:28:55.747Z,11.88
2019-05-12T03:34:00.108Z,9.38
2019-05-12T03:39:04.207Z,9.18
2019-05-12T03:44:06.343Z,8.70
2019-05-12T03:49:07.948Z,9.08
2019-05-12T03:54:09.638Z,12.55
2019-05-12T03:59:11.026Z,9.00
2019-05-12T04:04:16.167Z,11.70
2019-05-12T04:09:17.521Z,10.32
2019-05-12T04:14:18.789Z,12.53
2019-05-12T04:19:20.129Z,13.13
2019-05-12T04:24:25.234Z,9.38
2019-05-12T04:29:27.191Z,13.35
2019-05-12T04:34:30.682Z,12.03
2019-05-12T04:39:34.107Z,12.25
2019-05-12T04:44:36.678Z,10.53
2019-05-12T04:49:37.931Z,9.45
2019-05-12T04:54:39.266Z,11.48
2019-05-12T04:59:40.746Z,9.75
2019-05-12T05:04:44.073Z,10.10
2019-05-12T05:09:45.574Z,11.28
2019-05-12T05:14:47.155Z,10.65
2019-05-12T05:19:48.441Z,10.30
2019-05-12T05:24:49.831Z,10.18
2019-05-12T05:29:54.484Z,10.63
2019-05-12T05:34:57.794Z,7.65
2019-05-12T05:39:59.286Z,6.33
2019-05-12T05:45:09.940Z,8.50
2019-05-12T05:50:13.557Z,7.12
2019-05-12T05:55:19.886Z,5.75
2019-05-12T06:00:23.211Z,4.67
2019-05-12T06:05:28.709Z,3.92
2019-05-12T06:10:34.898Z,4.42
2019-05-12T06:15:35.907Z,4.40
2019-05-12T06:20:37.645Z,7.35
2019-05-12T06:25:46.037Z,4.62
2019-05-12T06:30:44.103Z,6.30
2019-05-12T06:35:45.373Z,4.42
2019-05-12T06:40:47.560Z,5.05
2019-05-12T06:45:50.783Z,6.60
2019-05-12T06:50:53.612Z,6.65
2019-05-12T06:55:58.211Z,3.30
2019-05-12T07:01:04.420Z,4.67
2019-05-12T07:06:09.278Z,4.10
2019-05-12T07:11:08.015Z,4.80
2019-05-12T07:16:22.016Z,5.97
2019-05-12T07:21:21.082Z,3.87
2019-05-12T07:26:23.463Z,4.65
2019-05-12T07:31:25.039Z,4.45
2019-05-12T07:36:29.009Z,8.88
2019-05-12T07:41:34.254Z,6.20
2019-05-12T07:46:39.759Z,3.17
2019-05-12T07:51:40.755Z,3.27
2019-05-12T07:56:44.223Z,2.98
2019-05-12T08:01:51.873Z,3.77
2019-05-12T08:06:53.680Z,4.72
2019-05-12T08:11:54.238Z,2.20
2019-05-12T08:17:01.978Z,1.17
2019-05-12T08:22:01.180Z,0.95
2019-05-12T08:27:07.363Z,4.78
2019-05-12T08:32:14.849Z,3.47
2019-05-12T08:37:13.913Z,1.80
2019-05-12T08:42:15.462Z,2.50
2019-05-12T08:47:16.751Z,1.32
2019-05-12T08:52:19.357Z,2.42
2019-05-12T08:57:24.163Z,3.08
2019-05-12T09:02:27.056Z,1.82
2019-05-12T09:07:30.367Z,3.12
2019-05-12T09:12:33.771Z,2.27
2019-05-12T09:17:37.463Z,1.62
2019-05-12T09:22:39.357Z,1.92
2019-05-12T09:27:45.639Z,1.55
2019-05-12T09:32:49.661Z,2.22
2019-05-12T09:37:47.941Z,2.10
2019-05-12T09:42:49.378Z,3.17
2019-05-12T09:47:58.963Z,3.12
2019-05-12T09:53:00.716Z,2.70
2019-05-12T09:58:06.306Z,1.67
2019-05-12T10:03:08.672Z,3.47
2019-05-12T10:08:10.278Z,2.40
2019-05-12T10:13:13.683Z,3.42
2019-05-12T10:18:15.216Z,6.00
2019-05-12T10:23:20.612Z,3.00
2019-05-12T10:28:23.656Z,3.47
2019-05-12T10:33:24.913Z,2.45
2019-05-12T10:38:26.198Z,1.80
2019-05-12T10:43:28.632Z,1.98
2019-05-12T10:48:34.328Z,4.17
2019-05-12T10:53:35.614Z,5.45
2019-05-12T10:58:37.493Z,3.35
2019-05-12T11:03:43.042Z,1.30
2019-05-12T11:08:47.323Z,2.40
2019-05-12T11:13:49.993Z,4.30
2019-05-12T11:18:49.157Z,1.98
2019-05-12T11:23:50.433Z,3.72
2019-05-12T11:28:53.258Z,4.65
2019-05-12T11:33:55.086Z,2.65
2019-05-12T11:38:56.481Z,3.08
2019-05-12T11:43:57.824Z,5.50
2019-05-12T11:48:59.300Z,1.62
2019-05-12T11:54:03.466Z,4.83
2019-05-12T11:59:04.015Z,4.42
2019-05-12T12:04:06.569Z,3.12
2019-05-12T12:09:09.115Z,1.40
2019-05-12T12:14:11.094Z,2.67
2019-05-12T12:19:12.509Z,3.00
2019-05-12T12:24:13.853Z,3.30
2019-05-12T12:29:15.256Z,2.77
2019-05-12T12:34:23.558Z,8.98
2019-05-12T12:39:20.604Z,1.87
2019-05-12T12:44:24.130Z,3.67
2019-05-12T12:49:28.721Z,1.47
2019-05-12T12:54:28.811Z,2.47
2019-05-12T12:59:33.409Z,2.58
2019-05-12T13:04:34.076Z,4.60
2019-05-12T13:09:35.536Z,2.10
2019-05-12T13:14:38.457Z,1.40
2019-05-12T13:19:40.142Z,2.50
2019-05-12T13:24:41.411Z,2.02
2019-05-12T13:29:42.650Z,4.50
2019-05-12T13:34:44.206Z,3.50
2019-05-12T13:39:55.457Z,3.77
2019-05-12T13:44:49.245Z,9.95
2019-05-12T13:49:50.676Z,3.67
2019-05-12T13:54:51.954Z,4.65
2019-05-12T14:00:04.180Z,3.35
2019-05-12T14:05:00.526Z,2.92
2019-05-12T14:09:59.682Z,6.15
2019-05-12T14:15:06.136Z,3.25
2019-05-12T14:20:09.147Z,4.15
2019-05-12T14:25:14.863Z,4.22
2019-05-12T14:30:15.945Z,3.67
2019-05-12T14:35:17.190Z,4.45
2019-05-12T14:40:21.255Z,2.47
2019-05-12T14:45:25.628Z,1.98
2019-05-12T14:50:27.323Z,2.85
2019-05-12T14:55:28.602Z,1.85
2019-05-12T15:00:30.681Z,1.50
2019-05-12T15:05:32.061Z,3.67
2019-05-12T15:10:33.833Z,4.42
2019-05-12T15:15:36.958Z,1.95
2019-05-12T15:20:41.476Z,4.30
2019-05-12T15:25:43.301Z,5.25
2019-05-12T15:30:44.672Z,3.52
2019-05-12T15:35:45.948Z,5.08
2019-05-12T15:40:47.757Z,7.22
2019-05-12T15:45:54.502Z,5.92
2019-05-12T15:50:54.026Z,2.72
2019-05-12T15:55:55.435Z,2.85
2019-05-12T16:00:58.094Z,5.72
2019-05-12T16:06:01.357Z,3.72
2019-05-12T16:11:05.108Z,3.75
2019-05-12T16:16:08.045Z,4.65
2019-05-12T16:21:09.646Z,2.35
2019-05-12T16:26:13.066Z,5.40
2019-05-12T16:31:16.673Z,6.15
2019-05-12T16:36:17.997Z,3.60
2019-05-12T16:41:19.812Z,2.00
2019-05-12T16:46:23.384Z,6.12
2019-05-12T16:51:24.552Z,5.15
2019-05-12T16:56:29.534Z,5.33
2019-05-12T17:01:29.573Z,2.45
2019-05-12T17:06:35.139Z,2.62
2019-05-12T17:11:37.305Z,1.67
2019-05-12T17:16:42.059Z,2.40
2019-05-12T17:21:41.446Z,2.08
2019-05-12T17:26:44.010Z,1.92
2019-05-12T17:31:45.466Z,4.12
2019-05-12T17:36:50.094Z,3.00
2019-05-12T17:41:49.909Z,2.87
2019-05-12T17:46:51.285Z,2.12
2019-05-12T17:51:53.445Z,1.57
2019-05-12T17:56:57.222Z,3.02
2019-05-12T18:01:58.493Z,2.92
2019-05-12T18:07:06.065Z,3.35
2019-05-12T18:12:04.272Z,2.45
2019-05-12T18:17:08.773Z,3.83
2019-05-12T18:22:09.573Z,4.05
2019-05-12T18:27:13.444Z,3.20
2019-05-12T18:32:14.497Z,2.37
2019-05-12T18:37:15.761Z,1.50
2019-05-12T18:42:17.292Z,2.58
2019-05-12T18:47:23.290Z,2.33
2019-05-12T18:52:23.595Z,2.75
2019-05-12T18:57:25.022Z,3.72
2019-05-12T19:02:28.455Z,4.33
2019-05-12T19:07:39.244Z,3.47
2019-05-12T19:12:35.476Z,8.75
2019-05-12T19:17:35.877Z,3.47
2019-05-12T19:22:39.406Z,1.85
2019-05-12T19:27:45.648Z,2.05
2019-05-12T19:32:44.951Z,4.55
2019-05-12T19:37:46.838Z,3.45
2019-05-12T19:42:53.835Z,3.50
2019-05-12T19:47:53.416Z,3.92
2019-05-12T19:52:54.532Z,2.33
2019-05-12T19:57:56.190Z,1.65
2019-05-12T20:02:57.469Z,3.00
2019-05-12T20:08:00.169Z,1.72
2019-05-12T20:13:20.055Z,3.35
2019-05-12T20:18:24.075Z,1.70
2019-05-12T20:23:27.509Z,1.72
2019-05-12T20:28:30.098Z,3.00
2019-05-12T20:33:34.337Z,1.27
2019-05-12T20:38:36.956Z,4.22
2019-05-12T20:43:43.584Z,3.60
2019-05-12T20:54:05.638Z,2.25
2019-05-12T20:59:22.031Z,5.53
2019-05-12T21:04:31.039Z,3.58
2019-05-12T21:09:28.641Z,3.35
2019-05-12T21:14:30.280Z,3.60
2019-05-12T21:19:37.964Z,2.67
2019-05-12T21:24:39.270Z,3.42
2019-05-12T21:29:39.225Z,2.37
2019-05-12T21:34:40.557Z,3.52
2019-05-12T21:39:46.786Z,3.17
2019-05-12T21:44:49.014Z,4.83
2019-05-12T21:49:55.137Z,3.30
2019-05-12T21:54:55.488Z,3.47
2019-05-12T21:59:56.832Z,6.35
2019-05-12T22:04:58.308Z,4.95
2019-05-12T22:09:59.693Z,5.40
2019-05-12T22:15:03.563Z,5.85
2019-05-12T22:20:14.772Z,3.98
2019-05-12T22:25:09.594Z,3.02
2019-05-12T22:30:13.503Z,3.95
2019-05-12T22:35:22.154Z,5.58
2019-05-12T22:40:20.054Z,4.00
2019-05-12T22:45:25.617Z,10.05
2019-05-12T22:50:32.282Z,5.28
2019-05-12T22:55:32.497Z,4.17
2019-05-12T23:00:34.549Z,4.65
2019-05-12T23:05:35.777Z,4.42
2019-05-12T23:10:41.492Z,4.47
2019-05-12T23:15:47.477Z,5.03
2019-05-12T23:20:44.911Z,6.62
2019-05-12T23:25:51.964Z,8.43
2019-05-12T23:30:50.189Z,5.22
2019-05-12T23:35:53.564Z,7.97
2019-05-12T23:40:54.823Z,4.22
2019-05-12T23:51:17.374Z,4.58
2019-05-12T23:56:18.642Z,6.35
